Spring Eagle — WDE8767 — position and weather

sailwx.info

Track history (hours):
 
Tides and Currents Weather Stations Pressure Air Temp Water Temp Dewpoint Dewpoint Depression Visibility Wind Speed Wind Dir Waves Ship Positions

Spring Eagle

Owner: M/V Spring Eagle, Galliano, LA. More information available from US FCC via Universal Licensing System and Coast Guard Vessel Documentation Center.

Last reported at 2018-Jun-20 10:45 UTC. Time now 2018-Jun-21 10:11 UTC.
Position N 29°36' W 090°29'.

Length 16 m; draft 2.5 m.

Type: Tug. MMSI: 367409340.

Date/timePositionNaut miles runAvg speedWind from/ knotsBaromVisibWave heightAir tempDewpointWater temp
2018-Jun-20 10:45N 29°36' W 090°29'4 4.5
2018-Jun-20 09:55N 29°35' W 090°25'  
2018-Jun-13 17:17N 29°34' W 090°28'1 4.9
2018-Jun-13 17:00N 29°34' W 090°30'2 4.8
2018-Jun-13 16:30N 29°34' W 090°33'2 4.3
2018-Jun-13 15:59N 29°35' W 090°35'2 4.4
2018-Jun-13 15:30N 29°35' W 090°38'2 4.6
2018-Jun-13 14:59N 29°36' W 090°40'2 4.4
2018-Jun-13 14:30N 29°37' W 090°42'2 3.6
2018-Jun-13 14:00N 29°35' W 090°43'1 2.8
2018-Jun-13 13:30N 29°34' W 090°43'1 1.1
2018-Jun-13 13:01N 29°33' W 090°42'0 0.8
2018-Jun-13 12:31N 29°33' W 090°42'0 0.2
2018-Jun-13 12:00N 29°33' W 090°42'0 0.0
2018-Jun-12 14:48N 29°33' W 090°42'1 2.5
2018-Jun-12 14:30N 29°33' W 090°43'2 3.0
2018-Jun-12 14:00N 29°35' W 090°43'1 1.8
2018-Jun-12 13:30N 29°34' W 090°43'0 0.0
2018-Jun-12 13:00N 29°34' W 090°43'  
Track history (hours):
 
Tides and Currents Weather Stations Pressure Air Temp Water Temp Dewpoint Dewpoint Depression Visibility Wind Speed Wind Dir Waves Ship Positions

Spring Eagle

Owner: M/V Spring Eagle, Galliano, LA. More information available from US FCC via Universal Licensing System and Coast Guard Vessel Documentation Center.

Last reported at 2018-Jun-20 10:45 UTC. Time now 2018-Jun-21 10:11 UTC.
Position N 29°36' W 090°29'.

Length 16 m; draft 2.5 m.

Type: Tug. MMSI: 367409340.

Date/timePositionNaut miles runAvg speedWind from/ knotsBaromVisibWave heightAir tempDewpointWater temp
2018-Jun-20 10:45N 29°36' W 090°29'4 4.5
2018-Jun-20 09:55N 29°35' W 090°25'  
2018-Jun-13 17:17N 29°34' W 090°28'1 4.9
2018-Jun-13 17:00N 29°34' W 090°30'2 4.8
2018-Jun-13 16:30N 29°34' W 090°33'2 4.3
2018-Jun-13 15:59N 29°35' W 090°35'2 4.4
2018-Jun-13 15:30N 29°35' W 090°38'2 4.6
2018-Jun-13 14:59N 29°36' W 090°40'2 4.4
2018-Jun-13 14:30N 29°37' W 090°42'2 3.6
2018-Jun-13 14:00N 29°35' W 090°43'1 2.8
2018-Jun-13 13:30N 29°34' W 090°43'1 1.1
2018-Jun-13 13:01N 29°33' W 090°42'0 0.8
2018-Jun-13 12:31N 29°33' W 090°42'0 0.2
2018-Jun-13 12:00N 29°33' W 090°42'0 0.0
2018-Jun-12 14:48N 29°33' W 090°42'1 2.5
2018-Jun-12 14:30N 29°33' W 090°43'2 3.0
2018-Jun-12 14:00N 29°35' W 090°43'1 1.8
2018-Jun-12 13:30N 29°34' W 090°43'0 0.0
2018-Jun-12 13:00N 29°34' W 090°43'  

Dump ship's entire track history